createdAt,value
2019-01-04T00:01:36.169Z,11.23
2019-01-04T00:04:09.342Z,12.10
2019-01-04T00:06:39.649Z,9.47
2019-01-04T00:09:10.409Z,9.80
2019-01-04T00:11:40.844Z,10.30
2019-01-04T00:14:11.562Z,9.10
2019-01-04T00:16:42.575Z,10.63
2019-01-04T00:19:12.924Z,11.20
2019-01-04T00:21:43.309Z,12.87
2019-01-04T00:24:13.646Z,13.33
2019-01-04T00:26:43.901Z,10.40
2019-01-04T00:29:14.189Z,11.90
2019-01-04T00:31:44.482Z,9.60
2019-01-04T00:34:14.757Z,8.80
2019-01-04T00:36:45.068Z,8.70
2019-01-04T00:39:15.340Z,9.83
2019-01-04T00:41:45.646Z,13.43
2019-01-04T00:44:15.948Z,9.40
2019-01-04T00:46:46.277Z,22.43
2019-01-04T00:49:16.585Z,14.33
2019-01-04T00:51:46.871Z,14.43
2019-01-04T00:54:17.142Z,11.27
2019-01-04T00:57:28.789Z,13.90
2019-01-04T01:00:36.027Z,12.63
2019-01-04T01:03:56.545Z,9.70
2019-01-04T01:07:13.776Z,11.70
2019-01-04T01:10:23.844Z,11.20
2019-01-04T01:13:44.145Z,10.13
2019-01-04T01:17:10.391Z,10.53
2019-01-04T01:20:26.404Z,9.90
2019-01-04T01:23:30.717Z,11.70
2019-01-04T01:26:44.229Z,11.83
2019-01-04T01:29:56.029Z,11.90
2019-01-04T01:33:22.313Z,14.90
2019-01-04T01:36:25.729Z,11.97
2019-01-04T01:39:58.322Z,15.37
2019-01-04T01:43:04.163Z,14.60
2019-01-04T01:45:55.725Z,11.83
2019-01-04T01:48:39.106Z,14.63
2019-01-04T01:51:54.412Z,12.40
2019-01-04T01:54:24.734Z,10.93
2019-01-04T01:56:54.998Z,10.83
2019-01-04T01:59:25.401Z,12.30
2019-01-04T02:01:55.732Z,11.40
2019-01-04T02:04:26.064Z,13.43
2019-01-04T02:06:56.358Z,10.33
2019-01-04T02:09:26.666Z,11.63
2019-01-04T02:11:56.973Z,14.23
2019-01-04T02:14:27.255Z,10.77
2019-01-04T02:16:57.555Z,11.80
2019-01-04T02:19:27.841Z,11.27
2019-01-04T02:21:58.162Z,12.00
2019-01-04T02:24:28.467Z,11.40
2019-01-04T02:26:58.768Z,14.67
2019-01-04T02:29:29.058Z,9.97
2019-01-04T02:31:59.371Z,12.50
2019-01-04T02:34:29.645Z,9.07
2019-01-04T02:36:59.969Z,10.30
2019-01-04T02:39:30.274Z,14.00
2019-01-04T02:42:00.554Z,11.90
2019-01-04T02:44:30.868Z,13.87
2019-01-04T02:47:01.157Z,11.83
2019-01-04T02:49:31.492Z,11.13
2019-01-04T02:52:01.775Z,13.43
2019-01-04T02:54:32.103Z,11.00
2019-01-04T02:57:02.387Z,11.97
2019-01-04T02:59:32.715Z,13.90
2019-01-04T03:02:03.862Z,12.40
2019-01-04T03:04:34.156Z,12.23
2019-01-04T03:07:04.446Z,10.77
2019-01-04T03:09:34.727Z,17.53
2019-01-04T03:12:05.043Z,21.03
2019-01-04T03:14:36.381Z,13.73
2019-01-04T03:17:06.694Z,11.87
2019-01-04T03:19:36.966Z,12.40
2019-01-04T03:22:07.296Z,11.43
2019-01-04T03:24:37.583Z,12.03
2019-01-04T03:27:07.872Z,10.80
2019-01-04T03:29:38.161Z,12.43
2019-01-04T03:32:08.529Z,13.03
2019-01-04T03:34:38.845Z,15.17
2019-01-04T03:37:09.147Z,13.47
2019-01-04T03:39:39.417Z,13.13
2019-01-04T03:42:09.722Z,15.03
2019-01-04T03:44:39.999Z,12.00
2019-01-04T03:47:10.305Z,15.73
2019-01-04T03:49:40.610Z,15.13
2019-01-04T03:52:10.925Z,13.33
2019-01-04T03:54:42.178Z,12.83
2019-01-04T03:57:12.468Z,14.33
2019-01-04T03:59:42.730Z,11.23
2019-01-04T04:02:13.094Z,14.23
2019-01-04T04:04:43.379Z,16.43
2019-01-04T04:07:13.878Z,13.93
2019-01-04T04:09:44.174Z,16.47
2019-01-04T04:12:14.479Z,16.47
2019-01-04T04:14:44.775Z,15.13
2019-01-04T04:17:15.136Z,15.03
2019-01-04T04:19:45.461Z,18.47
2019-01-04T04:22:15.799Z,17.43
2019-01-04T04:24:46.089Z,18.27
2019-01-04T04:27:16.388Z,18.40
2019-01-04T04:29:46.668Z,15.60
2019-01-04T04:32:16.962Z,14.27
2019-01-04T04:34:47.235Z,18.10
2019-01-04T04:37:17.560Z,17.13
2019-01-04T04:39:47.864Z,17.30
2019-01-04T04:42:18.254Z,18.20
2019-01-04T04:44:48.530Z,17.50
2019-01-04T04:47:18.828Z,15.77
2019-01-04T04:49:49.102Z,17.77
2019-01-04T04:52:19.424Z,14.47
2019-01-04T04:54:49.688Z,15.73
2019-01-04T04:57:19.980Z,15.70
2019-01-04T04:59:50.271Z,17.37
2019-01-04T05:02:20.598Z,17.40
2019-01-04T05:04:50.940Z,17.27
2019-01-04T05:07:21.248Z,16.63
2019-01-04T05:09:52.504Z,17.07
2019-01-04T05:12:22.790Z,15.13
2019-01-04T05:14:53.097Z,17.33
2019-01-04T05:17:23.399Z,14.33
2019-01-04T05:19:53.704Z,17.67
2019-01-04T05:22:24.005Z,16.13
2019-01-04T05:24:54.322Z,19.60
2019-01-04T05:27:24.635Z,14.07
2019-01-04T05:29:54.955Z,18.17
2019-01-04T05:32:25.280Z,19.67
2019-01-04T05:34:55.700Z,16.17
2019-01-04T05:37:25.969Z,15.97
2019-01-04T05:39:56.285Z,19.23
2019-01-04T05:42:26.570Z,18.40
2019-01-04T05:44:56.873Z,18.80
2019-01-04T05:47:27.178Z,16.30
2019-01-04T05:49:57.472Z,19.87
2019-01-04T05:52:27.797Z,14.70
2019-01-04T05:54:58.077Z,17.27
2019-01-04T05:57:28.376Z,17.97
2019-01-04T05:59:58.689Z,15.77
2019-01-04T06:02:28.969Z,20.37
2019-01-04T06:04:59.280Z,14.80
2019-01-04T06:07:29.572Z,18.97
2019-01-04T06:09:59.879Z,21.47
2019-01-04T06:12:30.171Z,17.33
2019-01-04T06:15:00.490Z,17.20
2019-01-04T06:17:30.767Z,18.90
2019-01-04T06:20:01.145Z,18.67
2019-01-04T06:22:31.408Z,22.63
2019-01-04T06:25:01.749Z,20.10
2019-01-04T06:27:32.035Z,18.43
2019-01-04T06:30:02.343Z,21.00
2019-01-04T06:32:32.685Z,17.50
2019-01-04T06:35:03.019Z,20.57
2019-01-04T06:37:33.292Z,16.97
2019-01-04T06:40:03.655Z,17.53
2019-01-04T06:42:33.939Z,21.70
2019-01-04T06:45:04.811Z,20.83
2019-01-04T06:47:35.635Z,24.03
2019-01-04T06:50:07.189Z,26.37
2019-01-04T06:52:37.467Z,20.27
2019-01-04T06:55:50.297Z,24.07
2019-01-04T06:58:20.656Z,20.77
2019-01-04T07:00:50.966Z,20.20
2019-01-04T07:03:21.269Z,21.13
2019-01-04T07:05:51.556Z,21.57
2019-01-04T07:08:21.861Z,20.43
2019-01-04T07:10:52.164Z,21.30
2019-01-04T07:13:22.446Z,19.43
2019-01-04T07:15:52.757Z,23.83
2019-01-04T07:18:23.037Z,24.80
2019-01-04T07:20:54.332Z,22.13
2019-01-04T07:23:24.865Z,20.07
2019-01-04T07:25:55.262Z,23.07
2019-01-04T07:28:26.472Z,23.27
2019-01-04T07:30:56.914Z,22.40
2019-01-04T07:33:27.327Z,21.37
2019-01-04T07:35:57.693Z,22.10
2019-01-04T07:38:28.474Z,24.10
2019-01-04T07:40:59.224Z,25.00
2019-01-04T07:43:29.632Z,24.70
2019-01-04T07:45:59.981Z,20.47
2019-01-04T07:48:30.338Z,23.43
2019-01-04T07:51:02.365Z,18.63
2019-01-04T07:53:32.729Z,22.13
2019-01-04T07:56:03.773Z,20.90
2019-01-04T07:58:34.573Z,22.80
2019-01-04T08:01:05.156Z,21.97
2019-01-04T08:03:36.062Z,20.10
2019-01-04T08:06:10.285Z,24.20
2019-01-04T08:08:52.472Z,20.73
2019-01-04T08:11:23.042Z,17.10
2019-01-04T08:13:53.876Z,20.37
2019-01-04T08:16:24.697Z,19.87
2019-01-04T08:18:55.295Z,19.13
2019-01-04T08:21:26.216Z,20.00
2019-01-04T08:23:57.243Z,18.20
2019-01-04T08:26:27.729Z,15.37
2019-01-04T08:28:58.055Z,17.43
2019-01-04T08:31:28.399Z,19.03
2019-01-04T08:33:58.755Z,19.20
2019-01-04T08:36:29.105Z,14.00
2019-01-04T08:38:59.416Z,13.80
2019-01-04T08:41:29.713Z,16.93
2019-01-04T08:44:00.013Z,15.57
2019-01-04T08:46:30.318Z,14.87
2019-01-04T08:49:00.653Z,17.43
2019-01-04T08:51:30.999Z,18.37
2019-01-04T08:54:04.467Z,22.73
2019-01-04T08:56:36.720Z,21.30
2019-01-04T08:59:07.029Z,20.17
2019-01-04T09:01:37.337Z,13.67
2019-01-04T09:04:07.639Z,17.23
2019-01-04T09:06:37.913Z,15.63
2019-01-04T09:09:09.166Z,13.40
2019-01-04T09:11:39.534Z,17.43
2019-01-04T09:14:09.823Z,18.47
2019-01-04T09:16:40.135Z,13.67
2019-01-04T09:19:10.428Z,14.47
2019-01-04T09:21:40.709Z,12.93
2019-01-04T09:24:11.015Z,18.27
2019-01-04T09:26:41.298Z,14.50
2019-01-04T09:29:11.598Z,19.40
2019-01-04T09:31:41.866Z,15.30
2019-01-04T09:34:12.163Z,23.43
2019-01-04T09:36:42.436Z,17.87
2019-01-04T09:39:12.758Z,16.87
2019-01-04T09:41:46.866Z,13.80
2019-01-04T09:44:17.532Z,15.17
2019-01-04T09:46:47.876Z,15.70
2019-01-04T09:49:18.214Z,16.70
2019-01-04T09:51:48.508Z,13.90
2019-01-04T09:54:18.857Z,12.07
2019-01-04T09:56:54.476Z,15.93
2019-01-04T09:59:25.808Z,18.70
2019-01-04T10:01:56.157Z,16.03
2019-01-04T10:04:26.463Z,13.33
2019-01-04T10:06:56.768Z,13.37
2019-01-04T10:09:27.079Z,14.63
2019-01-04T10:11:57.502Z,15.07
2019-01-04T10:14:27.916Z,18.67
2019-01-04T10:16:58.252Z,16.10
2019-01-04T10:19:28.547Z,15.80
2019-01-04T10:21:59.181Z,15.77
2019-01-04T10:24:29.686Z,20.83
2019-01-04T10:27:00.160Z,18.67
2019-01-04T10:29:30.679Z,17.40
2019-01-04T10:32:01.151Z,16.20
2019-01-04T10:34:31.473Z,18.60
2019-01-04T10:37:01.858Z,19.47
2019-01-04T10:39:32.238Z,14.27
2019-01-04T10:42:02.681Z,18.40
2019-01-04T10:44:33.415Z,21.07
2019-01-04T10:47:04.101Z,17.13
2019-01-04T10:49:34.497Z,16.70
2019-01-04T10:52:04.992Z,12.90
2019-01-04T10:54:35.339Z,16.20
2019-01-04T10:57:07.173Z,22.77
2019-01-04T10:59:37.537Z,16.77
2019-01-04T11:02:08.421Z,25.23
2019-01-04T11:04:39.083Z,16.80
2019-01-04T11:07:09.402Z,16.83
2019-01-04T11:09:39.982Z,20.60
2019-01-04T11:12:10.350Z,29.87
2019-01-04T11:14:40.644Z,13.83
2019-01-04T11:17:10.949Z,12.93
2019-01-04T11:19:41.257Z,11.73
2019-01-04T11:22:47.386Z,12.03
2019-01-04T11:26:10.950Z,19.57
2019-01-04T11:29:21.943Z,19.23
2019-01-04T11:32:02.999Z,19.77
2019-01-04T11:35:07.163Z,13.07
2019-01-04T11:37:47.253Z,13.20
2019-01-04T11:40:46.115Z,12.00
2019-01-04T11:43:54.537Z,14.47
2019-01-04T11:46:44.361Z,9.93
2019-01-04T11:49:42.327Z,12.77
2019-01-04T11:52:31.569Z,9.57
2019-01-04T11:55:01.861Z,11.30
2019-01-04T11:57:32.194Z,10.63
2019-01-04T12:00:02.509Z,13.53
2019-01-04T12:02:33.922Z,10.43
2019-01-04T12:05:04.345Z,13.33
2019-01-04T12:07:35.691Z,10.40
2019-01-04T12:10:06.629Z,10.50
2019-01-04T12:12:38.004Z,9.93
2019-01-04T12:15:08.379Z,9.53
2019-01-04T12:17:38.702Z,11.47
2019-01-04T12:20:09.158Z,5.47
2019-01-04T12:22:39.495Z,10.27
2019-01-04T12:25:09.807Z,8.30
2019-01-04T12:27:40.105Z,7.80
2019-01-04T12:30:11.519Z,6.13
2019-01-04T12:32:41.855Z,4.83
2019-01-04T12:35:14.047Z,8.20
2019-01-04T12:37:45.529Z,6.13
2019-01-04T12:40:15.888Z,7.07
2019-01-04T12:42:46.217Z,8.93
2019-01-04T12:45:16.541Z,8.07
2019-01-04T12:47:48.001Z,7.07
2019-01-04T12:50:18.365Z,4.60
2019-01-04T12:52:51.253Z,6.87
2019-01-04T12:55:23.214Z,4.50
2019-01-04T12:57:54.649Z,4.13
2019-01-04T13:00:24.986Z,5.67
2019-01-04T13:02:55.362Z,6.17
2019-01-04T13:05:25.751Z,5.80
2019-01-04T13:07:58.528Z,8.10
2019-01-04T13:10:28.044Z,7.80
2019-01-04T13:12:58.384Z,4.83
2019-01-04T13:15:31.635Z,6.50
2019-01-04T13:18:03.298Z,4.83
2019-01-04T13:20:33.621Z,5.80
2019-01-04T13:23:03.977Z,7.53
2019-01-04T13:25:34.253Z,11.17
2019-01-04T13:28:06.004Z,7.53
2019-01-04T13:30:36.375Z,6.67
2019-01-04T13:33:06.954Z,4.50
2019-01-04T13:35:38.964Z,6.17
2019-01-04T13:38:09.360Z,6.30
2019-01-04T13:40:39.944Z,5.33
2019-01-04T13:43:10.256Z,4.17
2019-01-04T13:45:40.598Z,19.90
2019-01-04T13:48:10.960Z,9.70
2019-01-04T13:50:41.328Z,7.97
2019-01-04T13:53:12.042Z,11.17
2019-01-04T13:55:42.749Z,13.67
2019-01-04T13:58:13.471Z,37.70
2019-01-04T14:00:43.781Z,13.47
2019-01-04T14:03:14.117Z,10.45
2019-01-04T14:05:44.418Z,8.10
2019-01-04T14:08:14.718Z,6.47
2019-01-04T14:10:45.029Z,5.23
2019-01-04T14:13:15.398Z,7.40
2019-01-04T14:15:45.700Z,7.17
2019-01-04T14:18:16.056Z,10.00
2019-01-04T14:20:46.412Z,6.53
2019-01-04T14:23:17.158Z,4.63
2019-01-04T14:25:49.337Z,7.07
2019-01-04T14:28:21.389Z,7.90
2019-01-04T14:30:52.456Z,6.53
2019-01-04T14:33:26.071Z,7.00
2019-01-04T14:35:57.265Z,7.53
2019-01-04T14:38:27.744Z,9.68
2019-01-04T14:40:57.979Z,5.80
2019-01-04T14:43:28.240Z,7.53
2019-01-04T14:45:58.520Z,7.93
2019-01-04T14:48:28.817Z,6.50
2019-01-04T14:50:59.924Z,5.70
2019-01-04T14:53:30.256Z,6.17
2019-01-04T14:56:00.549Z,7.93
2019-01-04T14:58:32.386Z,8.30
2019-01-04T15:01:02.598Z,7.37
2019-01-04T15:03:32.947Z,7.30
2019-01-04T15:06:03.280Z,10.27
2019-01-04T15:08:33.597Z,11.03
2019-01-04T15:11:03.851Z,9.13
2019-01-04T15:13:34.142Z,8.83
2019-01-04T15:16:04.419Z,9.80
2019-01-04T15:18:34.772Z,8.93
2019-01-04T15:21:05.176Z,13.60
2019-01-04T15:23:35.645Z,7.83
2019-01-04T15:26:05.943Z,7.57
2019-01-04T15:28:37.572Z,9.73
2019-01-04T15:31:08.895Z,11.27
2019-01-04T15:33:39.659Z,14.63
2019-01-04T15:36:10.175Z,13.53
2019-01-04T15:38:41.408Z,11.93
2019-01-04T15:41:12.069Z,15.83
2019-01-04T15:43:42.954Z,25.97
2019-01-04T15:46:16.893Z,15.88
2019-01-04T15:48:47.332Z,7.03
2019-01-04T15:51:18.167Z,7.60
2019-01-04T15:53:49.470Z,9.27
2019-01-04T15:56:21.229Z,10.60
2019-01-04T15:58:53.056Z,9.50
2019-01-04T16:01:24.259Z,38.47
2019-01-04T16:03:55.062Z,35.77
2019-01-04T16:06:25.496Z,11.50
2019-01-04T16:08:56.576Z,12.53
2019-01-04T16:11:28.183Z,12.60
2019-01-04T16:14:00.989Z,21.77
2019-01-04T16:16:32.533Z,11.77
2019-01-04T16:19:03.806Z,12.17
2019-01-04T16:21:35.559Z,13.17
2019-01-04T16:24:08.341Z,12.60
2019-01-04T16:26:38.729Z,15.67
2019-01-04T16:29:09.225Z,14.47
2019-01-04T16:31:44.375Z,16.03
2019-01-04T16:34:18.474Z,17.50
2019-01-04T16:36:50.356Z,15.23
2019-01-04T16:39:25.035Z,17.13
2019-01-04T16:41:57.455Z,19.67
2019-01-04T16:44:28.880Z,23.57
2019-01-04T16:47:00.264Z,18.87
2019-01-04T16:49:37.241Z,17.83
2019-01-04T16:52:10.648Z,16.23
2019-01-04T16:54:41.928Z,17.23
2019-01-04T16:57:12.956Z,15.00
2019-01-04T16:59:43.300Z,16.93
2019-01-04T17:02:15.197Z,16.60
2019-01-04T17:04:45.925Z,16.27
2019-01-04T17:07:17.365Z,15.80
2019-01-04T17:09:48.136Z,17.10
2019-01-04T17:12:19.448Z,17.50
2019-01-04T17:14:50.955Z,14.00
2019-01-04T17:17:23.616Z,15.77
2019-01-04T17:19:54.816Z,17.53
2019-01-04T17:22:28.269Z,15.80
2019-01-04T17:25:00.279Z,16.57
2019-01-04T17:27:33.342Z,16.70
2019-01-04T17:30:04.342Z,19.70
2019-01-04T17:32:35.183Z,17.90
2019-01-04T17:35:06.781Z,17.27
2019-01-04T17:37:37.689Z,29.73
2019-01-04T17:40:14.633Z,23.53
2019-01-04T17:42:46.999Z,29.33
2019-01-04T17:45:17.402Z,19.20
2019-01-04T17:47:48.763Z,20.57
2019-01-04T17:50:21.571Z,22.67
2019-01-04T17:52:52.878Z,23.30
2019-01-04T17:55:23.283Z,23.00
2019-01-04T17:57:54.459Z,20.63
2019-01-04T18:00:26.362Z,23.50
2019-01-04T18:03:00.798Z,23.03
2019-01-04T18:05:32.485Z,23.50
2019-01-04T18:08:06.211Z,20.23
2019-01-04T18:10:37.784Z,19.07
2019-01-04T18:13:09.339Z,21.07
2019-01-04T18:15:39.858Z,25.13
2019-01-04T18:18:11.024Z,21.60
2019-01-04T18:20:42.374Z,22.00
2019-01-04T18:23:13.825Z,20.07
2019-01-04T18:25:45.611Z,19.27
2019-01-04T18:28:17.443Z,22.50
2019-01-04T18:30:48.860Z,23.63
2019-01-04T18:33:21.633Z,24.17
2019-01-04T18:35:53.111Z,27.70
2019-01-04T18:38:24.664Z,23.63
2019-01-04T18:40:55.835Z,24.43
2019-01-04T18:43:27.594Z,37.23
2019-01-04T18:45:58.885Z,27.73
2019-01-04T18:48:31.518Z,28.90
2019-01-04T18:51:05.505Z,52.10
2019-01-04T18:53:37.119Z,31.33
2019-01-04T18:56:07.808Z,30.83
2019-01-04T18:58:39.289Z,30.00
2019-01-04T19:01:13.675Z,32.03
2019-01-04T19:03:41.574Z,24.27
2019-01-04T19:06:11.949Z,32.33
2019-01-04T19:08:42.372Z,26.13
2019-01-04T19:11:14.744Z,30.67
2019-01-04T19:13:45.190Z,26.10
2019-01-04T19:16:15.515Z,26.50
2019-01-04T19:18:46.096Z,27.17
2019-01-04T19:21:18.904Z,29.57
2019-01-04T19:24:03.233Z,29.10
2019-01-04T19:26:35.006Z,30.07
2019-01-04T19:29:06.791Z,26.87
2019-01-04T19:31:38.897Z,27.27
2019-01-04T19:34:11.347Z,25.70
2019-01-04T19:36:44.114Z,26.93
2019-01-04T19:39:20.095Z,30.10
2019-01-04T19:41:52.382Z,28.37
2019-01-04T19:44:24.289Z,29.60
2019-01-04T19:46:57.271Z,29.43
2019-01-04T19:49:30.327Z,29.43
2019-01-04T19:52:03.671Z,25.77
2019-01-04T19:54:35.293Z,28.93
2019-01-04T19:57:06.611Z,28.93
2019-01-04T19:59:42.106Z,26.47
2019-01-04T20:02:14.380Z,27.87
2019-01-04T20:04:46.281Z,26.93
2019-01-04T20:08:02.832Z,26.90
2019-01-04T20:11:38.004Z,29.77
2019-01-04T20:15:10.106Z,26.60
2019-01-04T20:18:06.898Z,27.17
2019-01-04T20:20:56.686Z,26.40
2019-01-04T20:23:50.180Z,28.10
2019-01-04T20:26:44.546Z,28.60
2019-01-04T20:29:43.818Z,29.03
2019-01-04T20:32:36.190Z,29.83
2019-01-04T20:35:32.887Z,28.70
2019-01-04T20:38:25.629Z,26.70
2019-01-04T20:41:24.421Z,24.57
2019-01-04T20:44:16.311Z,26.80
2019-01-04T20:47:15.024Z,26.00
2019-01-04T20:50:11.365Z,27.33
2019-01-04T20:53:00.191Z,22.90
2019-01-04T20:55:59.825Z,24.80
2019-01-04T20:58:53.155Z,27.67
2019-01-04T21:01:55.256Z,24.60
2019-01-04T21:05:05.310Z,26.50
2019-01-04T21:07:57.094Z,25.10
2019-01-04T21:10:56.093Z,23.83
2019-01-04T21:13:49.362Z,22.87
2019-01-04T21:16:53.771Z,26.20
2019-01-04T21:19:43.337Z,25.40
2019-01-04T21:22:35.631Z,23.43
2019-01-04T21:25:25.147Z,23.13
2019-01-04T21:28:15.544Z,20.63
2019-01-04T21:31:03.953Z,22.93
2019-01-04T21:33:59.771Z,20.90
2019-01-04T21:36:48.726Z,20.30
2019-01-04T21:39:53.825Z,23.37
2019-01-04T21:42:37.957Z,19.63
2019-01-04T21:45:33.505Z,17.07
2019-01-04T21:48:26.410Z,19.80
2019-01-04T21:51:22.728Z,19.57
2019-01-04T21:54:27.763Z,17.93
2019-01-04T21:57:15.678Z,22.10
2019-01-04T22:00:11.114Z,16.87
2019-01-04T22:02:57.834Z,17.13
2019-01-04T22:05:45.956Z,17.90
2019-01-04T22:08:34.083Z,17.93
2019-01-04T22:11:22.228Z,19.27
2019-01-04T22:14:11.464Z,18.67
2019-01-04T22:16:56.238Z,17.60
2019-01-04T22:20:00.848Z,16.57
2019-01-04T22:23:08.270Z,20.37
2019-01-04T22:25:56.392Z,17.17
2019-01-04T22:29:00.829Z,16.60
2019-01-04T22:32:08.794Z,17.07
2019-01-04T22:34:57.122Z,15.23
2019-01-04T22:37:39.679Z,16.77
2019-01-04T22:40:41.015Z,19.43
2019-01-04T22:43:29.022Z,18.97
2019-01-04T22:46:20.472Z,17.40
2019-01-04T22:49:08.623Z,18.67
2019-01-04T22:51:56.871Z,14.10
2019-01-04T22:54:46.118Z,12.63
2019-01-04T22:57:47.573Z,14.00
2019-01-04T23:00:46.056Z,12.73
2019-01-04T23:03:35.081Z,13.63
2019-01-04T23:06:23.439Z,15.13
2019-01-04T23:09:28.119Z,13.00
2019-01-04T23:12:16.269Z,12.97
2019-01-04T23:15:23.957Z,14.53
2019-01-04T23:18:25.481Z,10.83
2019-01-04T23:21:20.135Z,10.77
2019-01-04T23:24:08.341Z,11.67
2019-01-04T23:26:56.371Z,11.63
2019-01-04T23:29:44.298Z,11.47
2019-01-04T23:32:32.510Z,12.63
2019-01-04T23:35:30.663Z,11.80
2019-01-04T23:38:32.314Z,12.63
2019-01-04T23:41:15.017Z,11.37
2019-01-04T23:44:03.102Z,14.37
2019-01-04T23:46:50.945Z,12.20
2019-01-04T23:49:55.629Z,11.90
2019-01-04T23:52:44.063Z,13.23
2019-01-04T23:55:26.407Z,13.77
2019-01-04T23:58:27.870Z,14.63
